sensor_id;sensor_type;location;lat;lon;timestamp;P1;durP1;ratioP1;P2;durP2;ratioP2
13040;SDS011;6587;42.728;23.288;2024-02-16T00:02:05;19.77;;;10.47;;
13040;SDS011;6587;42.728;23.288;2024-02-16T00:04:32;18.93;;;10.60;;
13040;SDS011;6587;42.728;23.288;2024-02-16T00:06:59;17.20;;;10.37;;
13040;SDS011;6587;42.728;23.288;2024-02-16T00:09:26;20.73;;;10.90;;
13040;SDS011;6587;42.728;23.288;2024-02-16T00:11:54;23.27;;;12.47;;
13040;SDS011;6587;42.728;23.288;2024-02-16T00:14:21;21.40;;;12.00;;
13040;SDS011;6587;42.728;23.288;2024-02-16T00:16:48;20.03;;;11.47;;
13040;SDS011;6587;42.728;23.288;2024-02-16T00:19:15;19.30;;;11.77;;
13040;SDS011;6587;42.728;23.288;2024-02-16T00:21:42;24.53;;;13.17;;
13040;SDS011;6587;42.728;23.288;2024-02-16T00:24:09;24.30;;;12.83;;
13040;SDS011;6587;42.728;23.288;2024-02-16T00:26:36;22.17;;;11.80;;
13040;SDS011;6587;42.728;23.288;2024-02-16T00:29:06;22.73;;;12.57;;
13040;SDS011;6587;42.728;23.288;2024-02-16T00:31:33;23.47;;;11.50;;
13040;SDS011;6587;42.728;23.288;2024-02-16T00:34:00;23.03;;;12.30;;
13040;SDS011;6587;42.728;23.288;2024-02-16T00:36:27;23.23;;;11.33;;
13040;SDS011;6587;42.728;23.288;2024-02-16T00:38:55;21.80;;;11.83;;
13040;SDS011;6587;42.728;23.288;2024-02-16T00:41:23;23.27;;;11.53;;
13040;SDS011;6587;42.728;23.288;2024-02-16T00:43:49;22.67;;;12.80;;
13040;SDS011;6587;42.728;23.288;2024-02-16T00:46:18;26.57;;;13.80;;
13040;SDS011;6587;42.728;23.288;2024-02-16T00:48:48;23.57;;;13.93;;
13040;SDS011;6587;42.728;23.288;2024-02-16T00:51:16;25.23;;;12.53;;
13040;SDS011;6587;42.728;23.288;2024-02-16T00:53:43;28.90;;;14.17;;
13040;SDS011;6587;42.728;23.288;2024-02-16T00:56:10;27.80;;;14.47;;
13040;SDS011;6587;42.728;23.288;2024-02-16T00:58:39;28.97;;;15.03;;
13040;SDS011;6587;42.728;23.288;2024-02-16T01:01:07;30.20;;;15.37;;
13040;SDS011;6587;42.728;23.288;2024-02-16T01:03:38;27.70;;;15.07;;
13040;SDS011;6587;42.728;23.288;2024-02-16T01:06:05;29.80;;;15.63;;
13040;SDS011;6587;42.728;23.288;2024-02-16T01:08:34;30.00;;;15.40;;
13040;SDS011;6587;42.728;23.288;2024-02-16T01:11:00;29.27;;;15.57;;
13040;SDS011;6587;42.728;23.288;2024-02-16T01:13:27;30.33;;;15.70;;
13040;SDS011;6587;42.728;23.288;2024-02-16T01:15:54;33.83;;;19.60;;
13040;SDS011;6587;42.728;23.288;2024-02-16T01:18:21;43.93;;;22.73;;
13040;SDS011;6587;42.728;23.288;2024-02-16T01:20:49;44.50;;;21.50;;
13040;SDS011;6587;42.728;23.288;2024-02-16T01:23:16;47.83;;;23.87;;
13040;SDS011;6587;42.728;23.288;2024-02-16T01:25:43;40.93;;;22.20;;
13040;SDS011;6587;42.728;23.288;2024-02-16T01:28:10;43.83;;;21.20;;
13040;SDS011;6587;42.728;23.288;2024-02-16T01:30:37;43.67;;;21.37;;
13040;SDS011;6587;42.728;23.288;2024-02-16T01:33:04;37.13;;;20.77;;
13040;SDS011;6587;42.728;23.288;2024-02-16T01:35:32;38.37;;;21.77;;
13040;SDS011;6587;42.728;23.288;2024-02-16T01:38:00;32.67;;;16.90;;
13040;SDS011;6587;42.728;23.288;2024-02-16T01:40:27;31.60;;;16.47;;
13040;SDS011;6587;42.728;23.288;2024-02-16T01:42:54;32.10;;;18.13;;
13040;SDS011;6587;42.728;23.288;2024-02-16T01:45:21;30.07;;;16.87;;
13040;SDS011;6587;42.728;23.288;2024-02-16T01:47:49;28.90;;;16.07;;
13040;SDS011;6587;42.728;23.288;2024-02-16T01:50:17;30.33;;;15.03;;
13040;SDS011;6587;42.728;23.288;2024-02-16T01:52:45;28.50;;;15.80;;
13040;SDS011;6587;42.728;23.288;2024-02-16T01:55:14;33.17;;;16.30;;
13040;SDS011;6587;42.728;23.288;2024-02-16T01:57:43;29.77;;;14.60;;
13040;SDS011;6587;42.728;23.288;2024-02-16T02:00:11;34.33;;;16.30;;
13040;SDS011;6587;42.728;23.288;2024-02-16T02:02:40;23.50;;;14.50;;
13040;SDS011;6587;42.728;23.288;2024-02-16T02:05:07;27.50;;;15.43;;
13040;SDS011;6587;42.728;23.288;2024-02-16T02:07:34;27.37;;;15.90;;
13040;SDS011;6587;42.728;23.288;2024-02-16T02:10:01;32.50;;;17.17;;
13040;SDS011;6587;42.728;23.288;2024-02-16T02:12:29;29.97;;;16.57;;
13040;SDS011;6587;42.728;23.288;2024-02-16T02:14:57;30.63;;;17.03;;
13040;SDS011;6587;42.728;23.288;2024-02-16T02:17:24;28.37;;;16.10;;
13040;SDS011;6587;42.728;23.288;2024-02-16T02:19:51;27.83;;;17.23;;
13040;SDS011;6587;42.728;23.288;2024-02-16T02:22:19;30.70;;;17.23;;
13040;SDS011;6587;42.728;23.288;2024-02-16T02:24:46;32.77;;;18.07;;
13040;SDS011;6587;42.728;23.288;2024-02-16T02:27:14;27.30;;;15.93;;
13040;SDS011;6587;42.728;23.288;2024-02-16T02:29:42;38.07;;;21.30;;
13040;SDS011;6587;42.728;23.288;2024-02-16T02:32:10;36.83;;;19.77;;
13040;SDS011;6587;42.728;23.288;2024-02-16T02:34:37;37.30;;;21.27;;
13040;SDS011;6587;42.728;23.288;2024-02-16T02:37:04;36.53;;;19.90;;
13040;SDS011;6587;42.728;23.288;2024-02-16T02:39:32;33.43;;;18.47;;
13040;SDS011;6587;42.728;23.288;2024-02-16T02:41:59;38.17;;;19.30;;
13040;SDS011;6587;42.728;23.288;2024-02-16T02:44:26;36.63;;;19.37;;
13040;SDS011;6587;42.728;23.288;2024-02-16T02:46:54;35.83;;;19.67;;
13040;SDS011;6587;42.728;23.288;2024-02-16T02:49:21;37.97;;;20.80;;
13040;SDS011;6587;42.728;23.288;2024-02-16T02:51:48;29.73;;;17.57;;
13040;SDS011;6587;42.728;23.288;2024-02-16T02:54:15;30.33;;;17.63;;
13040;SDS011;6587;42.728;23.288;2024-02-16T02:56:43;32.90;;;19.00;;
13040;SDS011;6587;42.728;23.288;2024-02-16T02:59:10;30.50;;;16.30;;
13040;SDS011;6587;42.728;23.288;2024-02-16T03:01:36;28.87;;;14.20;;
13040;SDS011;6587;42.728;23.288;2024-02-16T03:04:03;35.00;;;17.30;;
13040;SDS011;6587;42.728;23.288;2024-02-16T03:06:31;32.07;;;15.93;;
13040;SDS011;6587;42.728;23.288;2024-02-16T03:08:58;24.53;;;15.20;;
13040;SDS011;6587;42.728;23.288;2024-02-16T03:11:24;28.43;;;14.97;;
13040;SDS011;6587;42.728;23.288;2024-02-16T03:13:53;26.07;;;14.40;;
13040;SDS011;6587;42.728;23.288;2024-02-16T03:16:20;19.37;;;11.00;;
13040;SDS011;6587;42.728;23.288;2024-02-16T03:18:46;30.10;;;14.67;;
13040;SDS011;6587;42.728;23.288;2024-02-16T03:21:13;23.47;;;12.50;;
13040;SDS011;6587;42.728;23.288;2024-02-16T03:23:42;25.13;;;12.53;;
13040;SDS011;6587;42.728;23.288;2024-02-16T03:26:15;27.50;;;14.00;;
13040;SDS011;6587;42.728;23.288;2024-02-16T03:28:43;23.97;;;12.87;;
13040;SDS011;6587;42.728;23.288;2024-02-16T03:31:19;28.73;;;14.97;;
13040;SDS011;6587;42.728;23.288;2024-02-16T03:33:47;28.30;;;15.77;;
13040;SDS011;6587;42.728;23.288;2024-02-16T03:36:15;24.57;;;14.47;;
13040;SDS011;6587;42.728;23.288;2024-02-16T03:38:42;28.00;;;15.33;;
13040;SDS011;6587;42.728;23.288;2024-02-16T03:41:12;44.27;;;22.63;;
13040;SDS011;6587;42.728;23.288;2024-02-16T03:43:39;49.60;;;23.53;;
13040;SDS011;6587;42.728;23.288;2024-02-16T03:46:06;63.53;;;28.90;;
13040;SDS011;6587;42.728;23.288;2024-02-16T03:48:34;60.77;;;27.97;;
13040;SDS011;6587;42.728;23.288;2024-02-16T03:51:01;38.37;;;19.03;;
13040;SDS011;6587;42.728;23.288;2024-02-16T03:53:29;33.30;;;16.63;;
13040;SDS011;6587;42.728;23.288;2024-02-16T03:55:56;38.27;;;19.87;;
13040;SDS011;6587;42.728;23.288;2024-02-16T03:58:22;33.67;;;19.70;;
13040;SDS011;6587;42.728;23.288;2024-02-16T04:00:50;40.43;;;24.77;;
13040;SDS011;6587;42.728;23.288;2024-02-16T04:03:18;54.87;;;29.40;;
13040;SDS011;6587;42.728;23.288;2024-02-16T04:05:46;37.53;;;19.37;;
13040;SDS011;6587;42.728;23.288;2024-02-16T04:08:13;36.90;;;20.60;;
13040;SDS011;6587;42.728;23.288;2024-02-16T04:10:40;38.10;;;21.03;;
13040;SDS011;6587;42.728;23.288;2024-02-16T04:13:06;40.23;;;21.70;;
13040;SDS011;6587;42.728;23.288;2024-02-16T04:15:33;44.43;;;24.33;;
13040;SDS011;6587;42.728;23.288;2024-02-16T04:18:00;41.57;;;23.50;;
13040;SDS011;6587;42.728;23.288;2024-02-16T04:20:27;44.67;;;23.63;;
13040;SDS011;6587;42.728;23.288;2024-02-16T04:22:55;46.67;;;23.10;;
13040;SDS011;6587;42.728;23.288;2024-02-16T04:25:22;40.57;;;21.17;;
13040;SDS011;6587;42.728;23.288;2024-02-16T04:27:49;34.57;;;19.17;;
13040;SDS011;6587;42.728;23.288;2024-02-16T04:30:16;32.27;;;18.93;;
13040;SDS011;6587;42.728;23.288;2024-02-16T04:32:43;34.40;;;19.80;;
13040;SDS011;6587;42.728;23.288;2024-02-16T04:35:09;38.70;;;19.27;;
13040;SDS011;6587;42.728;23.288;2024-02-16T04:37:37;33.63;;;18.00;;
13040;SDS011;6587;42.728;23.288;2024-02-16T04:40:06;39.03;;;18.57;;
13040;SDS011;6587;42.728;23.288;2024-02-16T04:42:37;36.43;;;19.00;;
13040;SDS011;6587;42.728;23.288;2024-02-16T04:45:06;35.17;;;17.90;;
13040;SDS011;6587;42.728;23.288;2024-02-16T04:47:33;33.47;;;17.83;;
13040;SDS011;6587;42.728;23.288;2024-02-16T04:50:00;32.33;;;17.90;;
13040;SDS011;6587;42.728;23.288;2024-02-16T04:52:28;36.30;;;19.33;;
13040;SDS011;6587;42.728;23.288;2024-02-16T04:54:55;34.20;;;19.37;;
13040;SDS011;6587;42.728;23.288;2024-02-16T04:57:23;33.87;;;21.10;;
13040;SDS011;6587;42.728;23.288;2024-02-16T04:59:49;44.23;;;22.60;;
13040;SDS011;6587;42.728;23.288;2024-02-16T05:02:17;47.70;;;26.20;;
13040;SDS011;6587;42.728;23.288;2024-02-16T05:04:43;92.97;;;40.67;;
13040;SDS011;6587;42.728;23.288;2024-02-16T05:07:10;90.33;;;40.07;;
13040;SDS011;6587;42.728;23.288;2024-02-16T05:09:37;110.30;;;45.27;;
13040;SDS011;6587;42.728;23.288;2024-02-16T05:12:05;101.27;;;45.17;;
13040;SDS011;6587;42.728;23.288;2024-02-16T05:14:35;141.60;;;61.53;;
13040;SDS011;6587;42.728;23.288;2024-02-16T05:17:02;108.30;;;50.13;;
13040;SDS011;6587;42.728;23.288;2024-02-16T05:19:31;153.83;;;67.13;;
13040;SDS011;6587;42.728;23.288;2024-02-16T05:21:59;104.53;;;51.07;;
13040;SDS011;6587;42.728;23.288;2024-02-16T05:24:26;89.63;;;48.20;;
13040;SDS011;6587;42.728;23.288;2024-02-16T05:26:53;82.47;;;42.03;;
13040;SDS011;6587;42.728;23.288;2024-02-16T05:29:21;73.67;;;37.87;;
13040;SDS011;6587;42.728;23.288;2024-02-16T05:31:51;73.97;;;39.90;;
13040;SDS011;6587;42.728;23.288;2024-02-16T05:34:18;68.07;;;37.40;;
13040;SDS011;6587;42.728;23.288;2024-02-16T05:36:45;73.80;;;39.23;;
13040;SDS011;6587;42.728;23.288;2024-02-16T05:39:13;75.40;;;41.33;;
13040;SDS011;6587;42.728;23.288;2024-02-16T05:41:51;75.27;;;44.73;;
13040;SDS011;6587;42.728;23.288;2024-02-16T05:44:18;75.67;;;43.20;;
13040;SDS011;6587;42.728;23.288;2024-02-16T05:46:45;69.57;;;38.53;;
13040;SDS011;6587;42.728;23.288;2024-02-16T05:49:14;79.43;;;43.57;;
13040;SDS011;6587;42.728;23.288;2024-02-16T05:51:41;89.60;;;46.33;;
13040;SDS011;6587;42.728;23.288;2024-02-16T05:54:25;93.87;;;47.10;;
13040;SDS011;6587;42.728;23.288;2024-02-16T05:56:52;84.57;;;41.10;;
13040;SDS011;6587;42.728;23.288;2024-02-16T05:59:19;78.60;;;36.13;;
13040;SDS011;6587;42.728;23.288;2024-02-16T06:01:47;62.20;;;32.40;;
13040;SDS011;6587;42.728;23.288;2024-02-16T06:04:15;78.93;;;39.13;;
13040;SDS011;6587;42.728;23.288;2024-02-16T06:06:42;125.73;;;48.20;;
13040;SDS011;6587;42.728;23.288;2024-02-16T06:09:09;117.40;;;46.00;;
13040;SDS011;6587;42.728;23.288;2024-02-16T06:11:36;122.90;;;48.17;;
13040;SDS011;6587;42.728;23.288;2024-02-16T06:14:03;102.80;;;45.43;;
13040;SDS011;6587;42.728;23.288;2024-02-16T06:16:30;139.60;;;54.67;;
13040;SDS011;6587;42.728;23.288;2024-02-16T06:18:56;115.47;;;44.20;;
13040;SDS011;6587;42.728;23.288;2024-02-16T06:21:25;55.20;;;26.70;;
13040;SDS011;6587;42.728;23.288;2024-02-16T06:23:52;54.90;;;25.93;;
13040;SDS011;6587;42.728;23.288;2024-02-16T06:26:19;50.30;;;23.67;;
13040;SDS011;6587;42.728;23.288;2024-02-16T06:28:46;56.13;;;29.73;;
13040;SDS011;6587;42.728;23.288;2024-02-16T06:31:13;70.20;;;41.63;;
13040;SDS011;6587;42.728;23.288;2024-02-16T06:33:39;58.97;;;34.13;;
13040;SDS011;6587;42.728;23.288;2024-02-16T06:36:06;44.97;;;28.23;;
13040;SDS011;6587;42.728;23.288;2024-02-16T06:38:36;43.60;;;22.80;;
13040;SDS011;6587;42.728;23.288;2024-02-16T06:41:03;38.23;;;18.60;;
13040;SDS011;6587;42.728;23.288;2024-02-16T06:43:30;25.27;;;14.53;;
13040;SDS011;6587;42.728;23.288;2024-02-16T06:45:58;23.23;;;12.93;;
13040;SDS011;6587;42.728;23.288;2024-02-16T06:48:25;22.80;;;13.40;;
13040;SDS011;6587;42.728;23.288;2024-02-16T06:50:52;22.47;;;11.30;;
13040;SDS011;6587;42.728;23.288;2024-02-16T06:53:19;21.27;;;11.63;;
13040;SDS011;6587;42.728;23.288;2024-02-16T06:55:47;23.80;;;13.70;;
13040;SDS011;6587;42.728;23.288;2024-02-16T06:58:14;17.73;;;9.47;;
13040;SDS011;6587;42.728;23.288;2024-02-16T07:00:41;19.87;;;11.03;;
13040;SDS011;6587;42.728;23.288;2024-02-16T07:03:08;21.17;;;10.53;;
13040;SDS011;6587;42.728;23.288;2024-02-16T07:05:35;23.23;;;11.20;;
13040;SDS011;6587;42.728;23.288;2024-02-16T07:08:02;18.67;;;10.77;;
13040;SDS011;6587;42.728;23.288;2024-02-16T07:10:31;19.67;;;11.27;;
13040;SDS011;6587;42.728;23.288;2024-02-16T07:12:59;19.43;;;10.90;;
13040;SDS011;6587;42.728;23.288;2024-02-16T07:15:26;22.77;;;11.50;;
13040;SDS011;6587;42.728;23.288;2024-02-16T07:17:53;20.93;;;12.50;;
13040;SDS011;6587;42.728;23.288;2024-02-16T07:20:20;23.13;;;12.43;;
13040;SDS011;6587;42.728;23.288;2024-02-16T07:22:47;21.63;;;12.43;;
13040;SDS011;6587;42.728;23.288;2024-02-16T07:25:16;23.57;;;13.87;;
13040;SDS011;6587;42.728;23.288;2024-02-16T07:27:43;26.47;;;13.47;;
13040;SDS011;6587;42.728;23.288;2024-02-16T07:30:12;20.60;;;12.17;;
13040;SDS011;6587;42.728;23.288;2024-02-16T07:32:39;23.93;;;11.83;;
13040;SDS011;6587;42.728;23.288;2024-02-16T07:35:06;30.90;;;12.63;;
13040;SDS011;6587;42.728;23.288;2024-02-16T07:37:35;23.87;;;11.43;;
13040;SDS011;6587;42.728;23.288;2024-02-16T07:40:02;20.07;;;12.00;;
13040;SDS011;6587;42.728;23.288;2024-02-16T07:42:31;20.43;;;11.93;;
13040;SDS011;6587;42.728;23.288;2024-02-16T07:44:58;20.03;;;11.27;;
13040;SDS011;6587;42.728;23.288;2024-02-16T07:47:26;17.27;;;10.90;;
13040;SDS011;6587;42.728;23.288;2024-02-16T07:49:53;24.63;;;12.13;;
13040;SDS011;6587;42.728;23.288;2024-02-16T07:52:20;19.33;;;10.97;;
13040;SDS011;6587;42.728;23.288;2024-02-16T07:54:47;18.67;;;10.93;;
13040;SDS011;6587;42.728;23.288;2024-02-16T07:57:15;16.57;;;10.37;;
13040;SDS011;6587;42.728;23.288;2024-02-16T07:59:42;21.30;;;11.10;;
13040;SDS011;6587;42.728;23.288;2024-02-16T08:02:09;20.70;;;11.37;;
13040;SDS011;6587;42.728;23.288;2024-02-16T08:04:42;19.57;;;11.87;;
13040;SDS011;6587;42.728;23.288;2024-02-16T08:07:08;20.93;;;11.20;;
13040;SDS011;6587;42.728;23.288;2024-02-16T08:09:35;22.40;;;11.53;;
13040;SDS011;6587;42.728;23.288;2024-02-16T08:12:02;20.77;;;12.27;;
13040;SDS011;6587;42.728;23.288;2024-02-16T08:14:31;25.37;;;12.47;;
13040;SDS011;6587;42.728;23.288;2024-02-16T08:16:57;27.30;;;13.80;;
13040;SDS011;6587;42.728;23.288;2024-02-16T08:19:25;30.70;;;15.40;;
13040;SDS011;6587;42.728;23.288;2024-02-16T08:21:59;26.63;;;13.50;;
13040;SDS011;6587;42.728;23.288;2024-02-16T08:24:27;23.00;;;13.20;;
13040;SDS011;6587;42.728;23.288;2024-02-16T08:26:53;20.47;;;11.43;;
13040;SDS011;6587;42.728;23.288;2024-02-16T08:29:21;17.57;;;10.23;;
13040;SDS011;6587;42.728;23.288;2024-02-16T08:31:49;14.03;;;9.50;;
13040;SDS011;6587;42.728;23.288;2024-02-16T08:34:16;26.50;;;10.80;;
13040;SDS011;6587;42.728;23.288;2024-02-16T08:36:43;17.60;;;9.93;;
13040;SDS011;6587;42.728;23.288;2024-02-16T08:39:11;16.57;;;9.40;;
13040;SDS011;6587;42.728;23.288;2024-02-16T08:41:38;19.93;;;10.03;;
13040;SDS011;6587;42.728;23.288;2024-02-16T08:44:05;22.67;;;11.20;;
13040;SDS011;6587;42.728;23.288;2024-02-16T08:46:34;14.07;;;9.73;;
13040;SDS011;6587;42.728;23.288;2024-02-16T08:49:01;19.50;;;9.97;;
13040;SDS011;6587;42.728;23.288;2024-02-16T08:51:28;15.90;;;9.40;;
13040;SDS011;6587;42.728;23.288;2024-02-16T08:53:55;20.40;;;10.97;;
13040;SDS011;6587;42.728;23.288;2024-02-16T08:56:23;20.23;;;10.07;;
13040;SDS011;6587;42.728;23.288;2024-02-16T08:58:50;18.47;;;10.47;;
13040;SDS011;6587;42.728;23.288;2024-02-16T09:01:16;19.43;;;10.47;;
13040;SDS011;6587;42.728;23.288;2024-02-16T09:03:43;23.70;;;10.10;;
13040;SDS011;6587;42.728;23.288;2024-02-16T09:06:10;18.20;;;10.20;;
13040;SDS011;6587;42.728;23.288;2024-02-16T09:08:38;14.13;;;9.50;;
13040;SDS011;6587;42.728;23.288;2024-02-16T09:11:05;22.43;;;11.00;;
13040;SDS011;6587;42.728;23.288;2024-02-16T09:13:33;18.27;;;10.73;;
13040;SDS011;6587;42.728;23.288;2024-02-16T09:16:01;19.40;;;11.07;;
13040;SDS011;6587;42.728;23.288;2024-02-16T09:18:28;19.17;;;10.73;;
13040;SDS011;6587;42.728;23.288;2024-02-16T09:20:55;24.13;;;10.37;;
13040;SDS011;6587;42.728;23.288;2024-02-16T09:23:22;22.90;;;11.47;;
13040;SDS011;6587;42.728;23.288;2024-02-16T09:25:49;15.77;;;10.60;;
13040;SDS011;6587;42.728;23.288;2024-02-16T09:28:16;18.23;;;11.30;;
13040;SDS011;6587;42.728;23.288;2024-02-16T09:30:45;14.80;;;9.20;;
13040;SDS011;6587;42.728;23.288;2024-02-16T09:33:12;21.17;;;10.20;;
13040;SDS011;6587;42.728;23.288;2024-02-16T09:35:39;14.87;;;9.40;;
13040;SDS011;6587;42.728;23.288;2024-02-16T09:38:06;17.27;;;8.80;;
13040;SDS011;6587;42.728;23.288;2024-02-16T09:40:35;19.20;;;9.70;;
13040;SDS011;6587;42.728;23.288;2024-02-16T09:43:02;16.13;;;9.97;;
13040;SDS011;6587;42.728;23.288;2024-02-16T09:45:29;15.30;;;8.87;;
13040;SDS011;6587;42.728;23.288;2024-02-16T09:47:58;15.37;;;8.77;;
13040;SDS011;6587;42.728;23.288;2024-02-16T09:50:25;16.43;;;8.27;;
13040;SDS011;6587;42.728;23.288;2024-02-16T09:52:54;13.90;;;8.63;;
13040;SDS011;6587;42.728;23.288;2024-02-16T09:55:21;9.00;;;6.50;;
13040;SDS011;6587;42.728;23.288;2024-02-16T09:57:57;10.17;;;6.97;;
13040;SDS011;6587;42.728;23.288;2024-02-16T10:00:25;9.17;;;6.30;;
13040;SDS011;6587;42.728;23.288;2024-02-16T10:02:52;11.17;;;7.17;;
13040;SDS011;6587;42.728;23.288;2024-02-16T10:05:20;7.03;;;4.90;;
13040;SDS011;6587;42.728;23.288;2024-02-16T10:07:48;9.00;;;5.93;;
13040;SDS011;6587;42.728;23.288;2024-02-16T10:10:21;12.20;;;7.10;;
13040;SDS011;6587;42.728;23.288;2024-02-16T10:12:48;8.07;;;6.07;;
13040;SDS011;6587;42.728;23.288;2024-02-16T10:15:19;9.40;;;6.00;;
13040;SDS011;6587;42.728;23.288;2024-02-16T10:17:56;11.17;;;6.53;;
13040;SDS011;6587;42.728;23.288;2024-02-16T10:20:25;8.97;;;6.80;;
13040;SDS011;6587;42.728;23.288;2024-02-16T10:23:01;11.90;;;6.83;;
13040;SDS011;6587;42.728;23.288;2024-02-16T10:25:29;12.77;;;6.10;;
13040;SDS011;6587;42.728;23.288;2024-02-16T10:27:57;7.60;;;5.03;;
13040;SDS011;6587;42.728;23.288;2024-02-16T10:30:25;8.13;;;4.50;;
13040;SDS011;6587;42.728;23.288;2024-02-16T10:32:56;7.23;;;4.67;;
13040;SDS011;6587;42.728;23.288;2024-02-16T10:35:23;7.60;;;5.03;;
13040;SDS011;6587;42.728;23.288;2024-02-16T10:37:54;5.87;;;4.17;;
13040;SDS011;6587;42.728;23.288;2024-02-16T10:40:23;6.07;;;4.47;;
13040;SDS011;6587;42.728;23.288;2024-02-16T10:42:50;5.13;;;4.27;;
13040;SDS011;6587;42.728;23.288;2024-02-16T10:45:17;6.20;;;4.73;;
13040;SDS011;6587;42.728;23.288;2024-02-16T10:47:44;4.73;;;4.23;;
13040;SDS011;6587;42.728;23.288;2024-02-16T10:50:11;7.10;;;5.27;;
13040;SDS011;6587;42.728;23.288;2024-02-16T10:52:41;7.53;;;5.40;;
13040;SDS011;6587;42.728;23.288;2024-02-16T10:55:11;8.83;;;5.30;;
13040;SDS011;6587;42.728;23.288;2024-02-16T10:57:41;6.43;;;4.30;;
13040;SDS011;6587;42.728;23.288;2024-02-16T11:00:08;5.17;;;4.40;;
13040;SDS011;6587;42.728;23.288;2024-02-16T11:02:50;6.83;;;4.57;;
13040;SDS011;6587;42.728;23.288;2024-02-16T11:05:20;7.27;;;3.67;;
13040;SDS011;6587;42.728;23.288;2024-02-16T11:08:03;4.20;;;3.80;;
13040;SDS011;6587;42.728;23.288;2024-02-16T11:10:31;8.10;;;4.47;;
13040;SDS011;6587;42.728;23.288;2024-02-16T11:13:01;5.63;;;4.67;;
13040;SDS011;6587;42.728;23.288;2024-02-16T11:15:30;6.00;;;4.43;;
13040;SDS011;6587;42.728;23.288;2024-02-16T11:17:58;6.73;;;4.40;;
13040;SDS011;6587;42.728;23.288;2024-02-16T11:20:26;5.17;;;4.33;;
13040;SDS011;6587;42.728;23.288;2024-02-16T11:22:53;5.93;;;4.50;;
13040;SDS011;6587;42.728;23.288;2024-02-16T11:25:31;6.90;;;4.73;;
13040;SDS011;6587;42.728;23.288;2024-02-16T11:27:58;5.30;;;4.10;;
13040;SDS011;6587;42.728;23.288;2024-02-16T11:30:25;10.63;;;4.70;;
13040;SDS011;6587;42.728;23.288;2024-02-16T11:32:52;5.90;;;4.43;;
13040;SDS011;6587;42.728;23.288;2024-02-16T11:35:19;6.10;;;4.20;;
13040;SDS011;6587;42.728;23.288;2024-02-16T11:37:46;4.70;;;3.63;;
13040;SDS011;6587;42.728;23.288;2024-02-16T11:40:13;5.30;;;3.73;;
13040;SDS011;6587;42.728;23.288;2024-02-16T11:42:41;8.63;;;4.50;;
13040;SDS011;6587;42.728;23.288;2024-02-16T11:45:10;4.97;;;4.47;;
13040;SDS011;6587;42.728;23.288;2024-02-16T11:47:38;8.23;;;4.33;;
13040;SDS011;6587;42.728;23.288;2024-02-16T11:50:06;7.03;;;3.93;;
13040;SDS011;6587;42.728;23.288;2024-02-16T11:52:36;5.60;;;3.33;;
13040;SDS011;6587;42.728;23.288;2024-02-16T11:55:03;4.80;;;4.07;;
13040;SDS011;6587;42.728;23.288;2024-02-16T11:57:30;6.10;;;4.17;;
13040;SDS011;6587;42.728;23.288;2024-02-16T11:59:59;5.47;;;3.90;;
13040;SDS011;6587;42.728;23.288;2024-02-16T12:02:29;5.50;;;3.60;;
13040;SDS011;6587;42.728;23.288;2024-02-16T12:04:59;4.60;;;3.27;;
13040;SDS011;6587;42.728;23.288;2024-02-16T12:07:26;3.90;;;3.20;;
13040;SDS011;6587;42.728;23.288;2024-02-16T12:09:57;4.90;;;4.03;;
13040;SDS011;6587;42.728;23.288;2024-02-16T12:12:24;6.60;;;4.00;;
13040;SDS011;6587;42.728;23.288;2024-02-16T12:14:52;4.93;;;4.10;;
13040;SDS011;6587;42.728;23.288;2024-02-16T12:17:21;4.60;;;4.07;;
13040;SDS011;6587;42.728;23.288;2024-02-16T12:19:49;6.47;;;4.57;;
13040;SDS011;6587;42.728;23.288;2024-02-16T12:22:17;5.73;;;4.57;;
13040;SDS011;6587;42.728;23.288;2024-02-16T12:24:44;4.80;;;4.30;;
13040;SDS011;6587;42.728;23.288;2024-02-16T12:27:11;6.07;;;4.63;;
13040;SDS011;6587;42.728;23.288;2024-02-16T12:29:38;6.30;;;4.17;;
13040;SDS011;6587;42.728;23.288;2024-02-16T12:32:05;5.77;;;4.20;;
13040;SDS011;6587;42.728;23.288;2024-02-16T12:34:36;5.63;;;4.20;;
13040;SDS011;6587;42.728;23.288;2024-02-16T12:37:04;7.07;;;4.10;;
13040;SDS011;6587;42.728;23.288;2024-02-16T12:39:32;6.00;;;4.40;;
13040;SDS011;6587;42.728;23.288;2024-02-16T12:41:59;8.40;;;4.40;;
13040;SDS011;6587;42.728;23.288;2024-02-16T12:44:26;5.53;;;3.83;;
13040;SDS011;6587;42.728;23.288;2024-02-16T12:46:53;6.13;;;4.43;;
13040;SDS011;6587;42.728;23.288;2024-02-16T12:49:20;5.20;;;4.13;;
13040;SDS011;6587;42.728;23.288;2024-02-16T12:51:49;4.53;;;3.70;;
13040;SDS011;6587;42.728;23.288;2024-02-16T12:54:16;8.30;;;4.57;;
13040;SDS011;6587;42.728;23.288;2024-02-16T12:56:44;7.17;;;4.07;;
13040;SDS011;6587;42.728;23.288;2024-02-16T12:59:11;7.07;;;4.03;;
13040;SDS011;6587;42.728;23.288;2024-02-16T13:01:38;6.50;;;3.73;;
13040;SDS011;6587;42.728;23.288;2024-02-16T13:04:05;8.53;;;3.87;;
13040;SDS011;6587;42.728;23.288;2024-02-16T13:06:32;6.17;;;3.90;;
13040;SDS011;6587;42.728;23.288;2024-02-16T13:09:00;9.77;;;4.60;;
13040;SDS011;6587;42.728;23.288;2024-02-16T13:11:27;7.50;;;4.27;;
13040;SDS011;6587;42.728;23.288;2024-02-16T13:13:55;8.10;;;5.10;;
13040;SDS011;6587;42.728;23.288;2024-02-16T13:16:22;5.20;;;4.40;;
13040;SDS011;6587;42.728;23.288;2024-02-16T13:18:48;6.90;;;4.30;;
13040;SDS011;6587;42.728;23.288;2024-02-16T13:21:15;5.67;;;4.07;;
13040;SDS011;6587;42.728;23.288;2024-02-16T13:23:42;5.97;;;4.20;;
13040;SDS011;6587;42.728;23.288;2024-02-16T13:26:10;6.10;;;3.80;;
13040;SDS011;6587;42.728;23.288;2024-02-16T13:28:37;4.43;;;3.90;;
13040;SDS011;6587;42.728;23.288;2024-02-16T13:31:04;5.53;;;4.03;;
13040;SDS011;6587;42.728;23.288;2024-02-16T13:33:31;6.40;;;4.63;;
13040;SDS011;6587;42.728;23.288;2024-02-16T13:35:58;13.20;;;4.73;;
13040;SDS011;6587;42.728;23.288;2024-02-16T13:38:25;5.43;;;3.93;;
13040;SDS011;6587;42.728;23.288;2024-02-16T13:40:51;8.03;;;4.73;;
13040;SDS011;6587;42.728;23.288;2024-02-16T13:43:20;4.90;;;3.57;;
13040;SDS011;6587;42.728;23.288;2024-02-16T13:45:47;5.10;;;3.40;;
13040;SDS011;6587;42.728;23.288;2024-02-16T13:48:16;4.40;;;3.93;;
13040;SDS011;6587;42.728;23.288;2024-02-16T13:50:44;8.90;;;3.60;;
13040;SDS011;6587;42.728;23.288;2024-02-16T13:53:12;5.27;;;3.60;;
13040;SDS011;6587;42.728;23.288;2024-02-16T13:55:40;4.80;;;4.03;;
13040;SDS011;6587;42.728;23.288;2024-02-16T13:58:07;5.70;;;3.97;;
13040;SDS011;6587;42.728;23.288;2024-02-16T14:00:35;5.17;;;4.00;;
13040;SDS011;6587;42.728;23.288;2024-02-16T14:03:03;6.43;;;4.97;;
13040;SDS011;6587;42.728;23.288;2024-02-16T14:05:31;7.00;;;4.80;;
13040;SDS011;6587;42.728;23.288;2024-02-16T14:07:58;6.23;;;4.47;;
13040;SDS011;6587;42.728;23.288;2024-02-16T14:10:25;4.75;;;4.28;;
13040;SDS011;6587;42.728;23.288;2024-02-16T14:12:51;8.97;;;4.10;;
13040;SDS011;6587;42.728;23.288;2024-02-16T14:15:18;6.23;;;3.77;;
13040;SDS011;6587;42.728;23.288;2024-02-16T14:17:46;5.77;;;3.60;;
13040;SDS011;6587;42.728;23.288;2024-02-16T14:20:13;6.20;;;3.80;;
13040;SDS011;6587;42.728;23.288;2024-02-16T14:22:40;4.10;;;3.70;;
13040;SDS011;6587;42.728;23.288;2024-02-16T14:25:07;5.27;;;3.60;;
13040;SDS011;6587;42.728;23.288;2024-02-16T14:27:36;5.40;;;3.50;;
13040;SDS011;6587;42.728;23.288;2024-02-16T14:30:03;5.13;;;3.70;;
13040;SDS011;6587;42.728;23.288;2024-02-16T14:32:31;5.03;;;3.70;;
13040;SDS011;6587;42.728;23.288;2024-02-16T14:34:59;4.90;;;3.70;;